createdAt,value
2023-12-11T00:00:53.907Z,28.55
2023-12-11T00:02:56.700Z,24.50
2023-12-11T00:04:58.169Z,23.07
2023-12-11T00:07:00.433Z,20.30
2023-12-11T00:09:01.897Z,22.42
2023-12-11T00:11:03.545Z,19.52
2023-12-11T00:13:05.321Z,17.17
2023-12-11T00:15:07.400Z,17.52
2023-12-11T00:17:08.845Z,16.77
2023-12-11T00:19:10.700Z,18.17
2023-12-11T00:21:12.508Z,16.95
2023-12-11T00:23:13.944Z,17.67
2023-12-11T00:25:15.901Z,17.90
2023-12-11T00:27:17.386Z,18.60
2023-12-11T00:29:18.932Z,17.60
2023-12-11T00:31:20.517Z,16.17
2023-12-11T00:33:22.020Z,16.55
2023-12-11T00:35:23.514Z,16.27
2023-12-11T00:37:25.281Z,16.73
2023-12-11T00:39:26.705Z,16.73
2023-12-11T00:41:28.146Z,15.90
2023-12-11T00:43:44.188Z,16.98
2023-12-11T00:45:47.829Z,16.48
2023-12-11T00:47:49.303Z,15.98
2023-12-11T00:49:51.015Z,16.33
2023-12-11T00:51:52.526Z,16.67
2023-12-11T00:53:54.012Z,16.70
2023-12-11T00:55:55.649Z,18.10
2023-12-11T00:57:57.169Z,17.20
2023-12-11T00:59:58.644Z,16.83
2023-12-11T01:02:00.563Z,17.00
2023-12-11T01:04:02.106Z,18.05
2023-12-11T01:06:03.771Z,17.17
2023-12-11T01:08:05.849Z,17.95
2023-12-11T01:10:07.729Z,17.98
2023-12-11T01:12:09.237Z,18.13
2023-12-11T01:14:11.042Z,15.38
2023-12-11T01:16:12.558Z,14.85
2023-12-11T01:18:14.121Z,15.65
2023-12-11T01:20:15.796Z,15.73
2023-12-11T01:22:17.255Z,16.40
2023-12-11T01:24:18.708Z,14.88
2023-12-11T01:26:20.330Z,14.93
2023-12-11T01:28:21.759Z,14.07
2023-12-11T01:30:23.186Z,14.90
2023-12-11T01:32:24.860Z,13.68
2023-12-11T01:34:26.407Z,15.02
2023-12-11T01:36:27.940Z,14.10
2023-12-11T01:38:29.673Z,14.68
2023-12-11T01:40:31.103Z,15.00
2023-12-11T01:42:34.507Z,14.27
2023-12-11T01:44:36.412Z,14.98
2023-12-11T01:46:37.998Z,14.57
2023-12-11T01:48:39.867Z,13.68
2023-12-11T01:50:41.670Z,14.07
2023-12-11T01:52:43.183Z,13.70
2023-12-11T01:54:45.291Z,12.80
2023-12-11T01:56:47.140Z,13.40
2023-12-11T01:58:49.581Z,13.32
2023-12-11T02:00:52.427Z,13.93
2023-12-11T02:02:54.083Z,12.90
2023-12-11T02:04:55.967Z,13.20
2023-12-11T02:06:58.304Z,12.60
2023-12-11T02:09:00.184Z,13.40
2023-12-11T02:11:01.685Z,13.75
2023-12-11T02:13:04.294Z,13.98
2023-12-11T02:15:06.526Z,13.18
2023-12-11T02:17:10.294Z,13.30
2023-12-11T02:19:11.938Z,13.35
2023-12-11T02:21:13.748Z,14.48
2023-12-11T02:23:34.912Z,13.75
2023-12-11T02:25:37.693Z,14.73
2023-12-11T02:27:39.371Z,13.83
2023-12-11T02:29:40.835Z,13.63
2023-12-11T02:31:42.583Z,13.93
2023-12-11T02:33:44.342Z,13.88
2023-12-11T02:35:45.882Z,14.25
2023-12-11T02:37:47.341Z,12.88
2023-12-11T02:39:48.948Z,13.00
2023-12-11T02:41:50.447Z,12.63
2023-12-11T02:43:52.002Z,13.52
2023-12-11T02:45:53.957Z,13.25
2023-12-11T02:47:55.513Z,13.48
2023-12-11T02:49:57.209Z,12.30
2023-12-11T02:51:59.048Z,13.55
2023-12-11T02:54:00.528Z,14.18
2023-12-11T02:56:01.993Z,13.85
2023-12-11T02:58:04.693Z,14.55
2023-12-11T03:00:07.038Z,13.93
2023-12-11T03:02:08.453Z,14.18
2023-12-11T03:04:10.059Z,13.35
2023-12-11T03:06:18.344Z,14.90
2023-12-11T03:08:19.817Z,13.48
2023-12-11T03:10:21.953Z,14.68
2023-12-11T03:12:23.383Z,14.68
2023-12-11T03:14:24.819Z,12.27
2023-12-11T03:16:26.513Z,13.25
2023-12-11T03:18:28.023Z,12.60
2023-12-11T03:20:29.548Z,12.23
2023-12-11T03:22:31.131Z,14.43
2023-12-11T03:24:32.694Z,13.02
2023-12-11T03:26:34.182Z,13.80
2023-12-11T03:28:35.922Z,12.73
2023-12-11T03:30:37.389Z,13.90
2023-12-11T03:32:38.877Z,13.90
2023-12-11T03:34:40.936Z,21.52
2023-12-11T03:36:45.390Z,20.88
2023-12-11T03:38:46.831Z,20.00
2023-12-11T03:40:48.653Z,15.57
2023-12-11T03:42:50.107Z,18.63
2023-12-11T03:44:51.566Z,15.27
2023-12-11T03:46:53.345Z,15.52
2023-12-11T03:48:54.872Z,16.10
2023-12-11T03:50:57.276Z,15.00
2023-12-11T03:52:58.992Z,15.85
2023-12-11T03:55:00.653Z,15.88
2023-12-11T03:57:02.130Z,14.98
2023-12-11T03:59:03.983Z,16.00
2023-12-11T04:01:05.600Z,16.45
2023-12-11T04:03:07.075Z,15.73
2023-12-11T04:05:08.829Z,15.20
2023-12-11T04:07:10.349Z,15.73
2023-12-11T04:09:11.805Z,15.35
2023-12-11T04:11:13.812Z,14.93
2023-12-11T04:13:15.516Z,15.85
2023-12-11T04:15:16.947Z,15.73
2023-12-11T04:17:18.535Z,15.65
2023-12-11T04:19:20.124Z,14.68
2023-12-11T04:21:21.905Z,14.68
2023-12-11T04:23:23.749Z,15.27
2023-12-11T04:25:25.366Z,14.55
2023-12-11T04:27:26.808Z,16.05
2023-12-11T04:29:28.633Z,15.70
2023-12-11T04:31:30.061Z,15.95
2023-12-11T04:33:31.710Z,13.48
2023-12-11T04:35:33.435Z,12.88
2023-12-11T04:37:34.911Z,12.75
2023-12-11T04:39:36.415Z,13.50
2023-12-11T04:41:38.170Z,12.57
2023-12-11T04:43:39.602Z,13.05
2023-12-11T04:45:41.220Z,12.95
2023-12-11T04:47:43.000Z,12.88
2023-12-11T04:49:44.657Z,12.63
2023-12-11T04:51:46.161Z,13.65
2023-12-11T04:53:47.761Z,13.43
2023-12-11T04:55:49.432Z,12.52
2023-12-11T04:57:51.029Z,12.50
2023-12-11T04:59:52.773Z,12.82
2023-12-11T05:01:54.352Z,13.10
2023-12-11T05:03:55.938Z,13.15
2023-12-11T05:05:57.637Z,13.30
2023-12-11T05:07:59.097Z,14.07
2023-12-11T05:10:00.575Z,14.27
2023-12-11T05:12:02.481Z,13.27
2023-12-11T05:14:04.024Z,13.02
2023-12-11T05:16:05.844Z,12.98
2023-12-11T05:18:07.519Z,13.00
2023-12-11T05:20:09.540Z,13.13
2023-12-11T05:22:11.071Z,13.20
2023-12-11T05:24:13.112Z,13.43
2023-12-11T05:26:20.655Z,13.88
2023-12-11T05:28:22.148Z,13.98
2023-12-11T05:30:24.608Z,14.13
2023-12-11T05:32:26.225Z,14.40
2023-12-11T05:34:27.733Z,15.15
2023-12-11T05:36:29.329Z,15.75
2023-12-11T05:38:30.757Z,14.60
2023-12-11T05:40:32.239Z,14.77
2023-12-11T05:42:33.881Z,18.65
2023-12-11T05:44:35.348Z,23.17
2023-12-11T05:46:36.858Z,21.15
2023-12-11T05:48:38.563Z,17.05
2023-12-11T05:50:41.450Z,16.73
2023-12-11T05:52:43.347Z,16.13
2023-12-11T05:54:44.849Z,14.27
2023-12-11T05:56:46.321Z,15.80
2023-12-11T05:58:47.901Z,14.15
2023-12-11T06:00:49.519Z,15.45
2023-12-11T06:02:51.036Z,14.38
2023-12-11T06:04:52.805Z,14.27
2023-12-11T06:06:54.480Z,14.93
2023-12-11T06:08:55.923Z,14.90
2023-12-11T06:10:57.474Z,21.42
2023-12-11T06:12:59.084Z,20.75
2023-12-11T06:15:00.580Z,20.13
2023-12-11T06:17:02.271Z,20.17
2023-12-11T06:19:04.120Z,21.00
2023-12-11T06:21:05.792Z,25.75
2023-12-11T06:23:07.401Z,24.15
2023-12-11T06:25:09.386Z,22.10
2023-12-11T06:27:10.971Z,22.67
2023-12-11T06:29:12.469Z,21.75
2023-12-11T06:31:15.609Z,20.75
2023-12-11T06:33:17.053Z,20.67
2023-12-11T06:35:18.703Z,22.15
2023-12-11T06:37:20.415Z,23.65
2023-12-11T06:39:22.187Z,24.90
2023-12-11T06:41:23.781Z,26.20
2023-12-11T06:43:25.288Z,24.88
2023-12-11T06:45:26.850Z,22.27
2023-12-11T06:47:28.587Z,22.50
2023-12-11T06:49:30.219Z,22.65
2023-12-11T06:51:31.714Z,20.52
2023-12-11T06:53:33.319Z,19.90
2023-12-11T06:55:34.900Z,18.73
2023-12-11T06:57:36.389Z,18.52
2023-12-11T06:59:38.127Z,18.52
2023-12-11T07:01:39.769Z,19.48
2023-12-11T07:03:41.513Z,21.75
2023-12-11T07:05:44.180Z,19.27
2023-12-11T07:07:47.929Z,19.35
2023-12-11T07:11:50.855Z,22.95
2023-12-11T07:13:52.866Z,24.50
2023-12-11T07:15:54.405Z,21.10
2023-12-11T07:17:56.963Z,19.95
2023-12-11T07:19:58.477Z,22.98
2023-12-11T07:21:59.942Z,23.25
2023-12-11T07:24:01.435Z,15.85
2023-12-11T07:26:03.163Z,15.95
2023-12-11T07:28:04.873Z,19.45
2023-12-11T07:30:07.022Z,17.63
2023-12-11T07:32:08.623Z,18.98
2023-12-11T07:34:10.164Z,17.20
2023-12-11T07:36:12.115Z,16.98
2023-12-11T07:38:14.094Z,15.13
2023-12-11T07:40:15.625Z,15.23
2023-12-11T07:42:17.239Z,14.73
2023-12-11T07:44:18.828Z,14.75
2023-12-11T07:46:21.325Z,15.10
2023-12-11T07:48:23.052Z,15.52
2023-12-11T07:50:24.608Z,15.45
2023-12-11T07:52:29.435Z,16.92
2023-12-11T07:54:31.020Z,15.32
2023-12-11T07:56:32.588Z,14.75
2023-12-11T07:58:34.756Z,15.07
2023-12-11T08:00:36.444Z,13.73
2023-12-11T08:02:38.609Z,15.05
2023-12-11T08:04:40.242Z,14.40
2023-12-11T08:06:42.643Z,13.82
2023-12-11T08:08:44.365Z,14.50
2023-12-11T08:10:46.130Z,14.27
2023-12-11T08:12:53.502Z,14.43
2023-12-11T08:14:55.323Z,13.77
2023-12-11T08:16:56.738Z,13.38
2023-12-11T08:18:58.625Z,15.32
2023-12-11T08:21:00.267Z,14.70
2023-12-11T08:23:01.706Z,13.40
2023-12-11T08:25:03.387Z,14.38
2023-12-11T08:27:05.365Z,14.13
2023-12-11T08:29:07.501Z,13.75
2023-12-11T08:31:09.564Z,16.00
2023-12-11T08:33:11.193Z,12.98
2023-12-11T08:35:12.659Z,16.52
2023-12-11T08:37:14.287Z,13.73
2023-12-11T08:39:15.967Z,14.50
2023-12-11T08:41:17.421Z,13.48
2023-12-11T08:43:18.999Z,14.63
2023-12-11T08:45:20.548Z,13.20
2023-12-11T08:47:22.014Z,14.00
2023-12-11T08:49:23.742Z,14.00
2023-12-11T08:51:25.539Z,16.25
2023-12-11T08:53:26.991Z,13.93
2023-12-11T08:55:31.740Z,14.02
2023-12-11T08:57:36.009Z,12.95
2023-12-11T08:59:37.512Z,14.07
2023-12-11T09:01:39.385Z,13.30
2023-12-11T09:03:41.208Z,15.98
2023-12-11T09:05:42.904Z,13.48
2023-12-11T09:07:44.733Z,13.30
2023-12-11T09:09:46.340Z,15.60
2023-12-11T09:11:47.808Z,19.08
2023-12-11T09:13:49.477Z,18.73
2023-12-11T09:15:51.097Z,19.90
2023-12-11T09:17:52.640Z,12.95
2023-12-11T09:19:55.977Z,14.52
2023-12-11T09:21:58.271Z,15.73
2023-12-11T09:23:59.733Z,21.85
2023-12-11T09:26:01.469Z,16.60
2023-12-11T09:28:03.205Z,13.25
2023-12-11T09:30:07.552Z,23.58
2023-12-11T09:32:09.181Z,15.40
2023-12-11T09:34:11.280Z,21.00
2023-12-11T09:36:12.836Z,16.92
2023-12-11T09:38:14.461Z,24.90
2023-12-11T09:40:16.134Z,18.67
2023-12-11T09:42:18.137Z,15.57
2023-12-11T09:44:20.676Z,15.10
2023-12-11T09:46:23.879Z,12.15
2023-12-11T09:48:25.634Z,13.18
2023-12-11T09:50:28.110Z,21.17
2023-12-11T09:52:29.846Z,19.77
2023-12-11T09:54:31.494Z,13.70
2023-12-11T09:56:33.204Z,11.30
2023-12-11T09:58:34.952Z,9.93
2023-12-11T10:00:37.311Z,13.45
2023-12-11T10:02:42.069Z,10.30
2023-12-11T10:05:06.526Z,10.63
2023-12-11T10:09:27.359Z,14.07
2023-12-11T10:11:28.892Z,15.57
2023-12-11T10:13:30.523Z,17.83
2023-12-11T10:15:33.401Z,20.33
2023-12-11T10:17:35.355Z,20.42
2023-12-11T10:19:37.159Z,19.35
2023-12-11T10:21:40.578Z,11.13
2023-12-11T10:23:42.382Z,12.75
2023-12-11T10:25:49.621Z,10.00
2023-12-11T10:27:51.078Z,9.55
2023-12-11T10:30:12.429Z,13.13
2023-12-11T10:32:14.085Z,9.90
2023-12-11T10:34:15.834Z,11.68
2023-12-11T10:36:17.799Z,9.90
2023-12-11T10:38:26.855Z,10.75
2023-12-11T10:40:39.054Z,10.48
2023-12-11T10:42:41.503Z,10.82
2023-12-11T10:44:47.438Z,10.52
2023-12-11T10:46:55.813Z,15.30
2023-12-11T10:48:58.487Z,10.32
2023-12-11T10:51:00.354Z,12.43
2023-12-11T10:53:02.340Z,20.88
2023-12-11T10:55:04.018Z,11.68
2023-12-11T10:57:09.186Z,14.88
2023-12-11T10:59:11.689Z,16.35
2023-12-11T11:01:14.350Z,8.43
2023-12-11T11:03:17.318Z,12.05
2023-12-11T11:05:21.031Z,13.77
2023-12-11T11:07:38.980Z,26.23
2023-12-11T11:10:05.065Z,12.05
2023-12-11T11:12:17.044Z,8.82
2023-12-11T11:14:18.756Z,9.23
2023-12-11T11:16:20.822Z,9.25
2023-12-11T11:18:22.757Z,9.45
2023-12-11T11:20:24.569Z,8.52
2023-12-11T11:22:32.566Z,9.80
2023-12-11T11:26:41.617Z,8.20
2023-12-11T11:28:44.434Z,8.05
2023-12-11T11:30:46.196Z,8.07
2023-12-11T11:32:56.825Z,7.57
2023-12-11T11:34:58.521Z,6.63
2023-12-11T11:37:00.132Z,7.70
2023-12-11T11:39:01.987Z,7.22
2023-12-11T11:41:03.729Z,7.63
2023-12-11T11:43:09.087Z,7.18
2023-12-11T11:45:10.794Z,8.10
2023-12-11T11:47:18.184Z,9.00
2023-12-11T11:49:34.144Z,7.28
2023-12-11T11:51:36.408Z,8.02
2023-12-11T11:53:38.779Z,6.68
2023-12-11T11:55:40.575Z,8.07
2023-12-11T11:57:42.380Z,6.85
2023-12-11T11:59:47.270Z,6.70
2023-12-11T12:01:56.410Z,9.07
2023-12-11T12:03:58.688Z,8.52
2023-12-11T12:06:00.269Z,7.45
2023-12-11T12:08:01.825Z,7.25
2023-12-11T12:10:03.702Z,7.63
2023-12-11T12:12:05.883Z,7.13
2023-12-11T12:14:13.486Z,6.95
2023-12-11T12:16:27.997Z,6.80
2023-12-11T12:18:29.929Z,6.82
2023-12-11T12:20:31.456Z,9.70
2023-12-11T12:22:33.389Z,6.22
2023-12-11T12:24:39.345Z,7.13
2023-12-11T12:26:42.287Z,6.75
2023-12-11T12:28:44.037Z,7.65
2023-12-11T12:30:45.923Z,7.00
2023-12-11T12:32:50.820Z,6.78
2023-12-11T12:34:52.748Z,6.75
2023-12-11T12:37:00.366Z,6.30
2023-12-11T12:39:02.289Z,6.32
2023-12-11T12:41:04.245Z,6.38
2023-12-11T12:43:10.772Z,6.65
2023-12-11T12:45:16.038Z,7.20
2023-12-11T12:47:22.654Z,6.68
2023-12-11T12:49:24.238Z,7.85
2023-12-11T12:51:25.724Z,7.13
2023-12-11T12:53:27.603Z,7.30
2023-12-11T12:55:29.657Z,6.72
2023-12-11T12:57:36.198Z,6.88
2023-12-11T12:59:41.577Z,7.03
2023-12-11T13:01:43.148Z,7.25
2023-12-11T13:03:44.877Z,6.50
2023-12-11T13:05:47.654Z,8.80
2023-12-11T13:07:59.773Z,8.27
2023-12-11T13:10:09.336Z,6.65
2023-12-11T13:12:11.054Z,7.20
2023-12-11T13:14:13.271Z,9.85
2023-12-11T13:16:14.742Z,8.05
2023-12-11T13:18:16.784Z,7.40
2023-12-11T13:20:18.733Z,9.88
2023-12-11T13:22:20.271Z,8.25
2023-12-11T13:24:21.943Z,11.68
2023-12-11T13:26:23.428Z,8.40
2023-12-11T13:28:24.905Z,7.95
2023-12-11T13:30:26.585Z,11.45
2023-12-11T13:32:28.049Z,10.75
2023-12-11T13:34:29.557Z,11.48
2023-12-11T13:36:31.401Z,9.82
2023-12-11T13:38:32.831Z,9.18
2023-12-11T13:40:34.347Z,9.07
2023-12-11T13:42:37.888Z,9.35
2023-12-11T13:44:39.413Z,17.88
2023-12-11T13:46:40.849Z,23.23
2023-12-11T13:48:42.670Z,23.15
2023-12-11T13:50:44.267Z,25.45
2023-12-11T13:52:45.700Z,18.35
2023-12-11T13:54:47.535Z,18.95
2023-12-11T13:56:49.279Z,18.38
2023-12-11T13:58:50.740Z,27.90
2023-12-11T14:00:52.400Z,22.48
2023-12-11T14:03:01.308Z,18.77
2023-12-11T14:05:05.985Z,23.98
2023-12-11T14:07:07.631Z,17.17
2023-12-11T14:09:09.089Z,18.58
2023-12-11T14:11:10.554Z,14.35
2023-12-11T14:13:12.793Z,16.80
2023-12-11T14:15:14.262Z,19.42
2023-12-11T14:17:15.776Z,42.38
2023-12-11T14:19:17.592Z,53.92
2023-12-11T14:21:19.122Z,27.10
2023-12-11T14:23:20.552Z,19.52
2023-12-11T14:25:22.479Z,16.25
2023-12-11T14:27:23.919Z,17.60
2023-12-11T14:29:25.354Z,19.17
2023-12-11T14:31:27.509Z,23.60
2023-12-11T14:33:29.111Z,17.70
2023-12-11T14:35:30.742Z,16.05
2023-12-11T14:37:33.089Z,18.23
2023-12-11T14:39:34.657Z,20.58
2023-12-11T14:41:42.433Z,28.88
2023-12-11T14:43:44.132Z,27.60
2023-12-11T14:45:45.624Z,20.60
2023-12-11T14:47:47.311Z,15.45
2023-12-11T14:49:49.089Z,13.73
2023-12-11T14:51:50.758Z,13.98
2023-12-11T14:53:52.283Z,13.05
2023-12-11T14:55:53.855Z,13.75
2023-12-11T14:57:55.404Z,27.48
2023-12-11T14:59:57.187Z,28.10
2023-12-11T15:01:58.903Z,36.65
2023-12-11T15:04:00.428Z,23.80
2023-12-11T15:06:02.862Z,20.67
2023-12-11T15:08:04.470Z,24.88
2023-12-11T15:10:06.623Z,24.75
2023-12-11T15:12:08.645Z,24.15
2023-12-11T15:14:10.621Z,31.50
2023-12-11T15:16:12.700Z,18.00
2023-12-11T15:18:14.530Z,25.75
2023-12-11T15:20:16.553Z,22.45
2023-12-11T15:22:18.133Z,20.20
2023-12-11T15:24:19.784Z,24.17
2023-12-11T15:26:22.190Z,24.35
2023-12-11T15:28:24.320Z,23.58
2023-12-11T15:30:25.886Z,24.35
2023-12-11T15:32:27.615Z,18.88
2023-12-11T15:34:29.395Z,21.73
2023-12-11T15:36:30.970Z,22.63
2023-12-11T15:38:35.745Z,32.75
2023-12-11T15:40:37.187Z,20.33
2023-12-11T15:42:38.842Z,22.80
2023-12-11T15:44:44.046Z,20.70
2023-12-11T15:46:45.478Z,34.20
2023-12-11T15:48:47.927Z,22.42
2023-12-11T15:50:50.160Z,22.00
2023-12-11T15:52:51.680Z,23.83
2023-12-11T15:54:53.267Z,20.77
2023-12-11T15:56:55.248Z,18.63
2023-12-11T15:58:56.861Z,24.48
2023-12-11T16:00:58.364Z,28.38
2023-12-11T16:03:00.064Z,20.90
2023-12-11T16:05:01.738Z,15.77
2023-12-11T16:07:03.208Z,16.08
2023-12-11T16:09:04.763Z,21.60
2023-12-11T16:11:06.334Z,22.10
2023-12-11T16:13:08.072Z,19.27
2023-12-11T16:15:10.299Z,16.27
2023-12-11T16:17:11.895Z,17.58
2023-12-11T16:19:13.813Z,27.95
2023-12-11T16:21:15.602Z,19.98
2023-12-11T16:23:17.160Z,38.70
2023-12-11T16:25:18.644Z,16.92
2023-12-11T16:27:20.273Z,27.67
2023-12-11T16:29:21.786Z,20.98
2023-12-11T16:31:24.521Z,20.70
2023-12-11T16:33:26.120Z,33.23
2023-12-11T16:35:27.652Z,23.50
2023-12-11T16:37:29.114Z,31.42
2023-12-11T16:39:31.160Z,19.65
2023-12-11T16:41:32.706Z,23.75
2023-12-11T16:43:36.015Z,18.95
2023-12-11T16:45:43.781Z,19.17
2023-12-11T16:47:45.356Z,18.73
2023-12-11T16:49:55.555Z,13.60
2023-12-11T16:52:02.828Z,27.27
2023-12-11T16:54:04.532Z,23.63
2023-12-11T16:56:06.377Z,25.98
2023-12-11T16:58:08.487Z,48.53
2023-12-11T17:00:11.000Z,23.48
2023-12-11T17:02:12.480Z,32.58
2023-12-11T17:04:14.267Z,32.95
2023-12-11T17:06:19.845Z,43.25
2023-12-11T17:08:23.750Z,22.10
2023-12-11T17:10:25.397Z,25.77
2023-12-11T17:12:30.732Z,16.25
2023-12-11T17:14:32.389Z,20.00
2023-12-11T17:16:34.010Z,19.92
2023-12-11T17:18:35.736Z,22.00
2023-12-11T17:20:37.221Z,17.00
2023-12-11T17:22:39.123Z,14.93
2023-12-11T17:24:40.766Z,14.30
2023-12-11T17:26:42.204Z,17.77
2023-12-11T17:28:43.903Z,18.40
2023-12-11T17:30:45.476Z,16.25
2023-12-11T17:32:46.991Z,11.43
2023-12-11T17:34:48.712Z,14.38
2023-12-11T17:36:50.305Z,12.25
2023-12-11T17:38:51.772Z,13.18
2023-12-11T17:40:53.307Z,14.30
2023-12-11T17:42:54.864Z,12.13
2023-12-11T17:44:56.414Z,12.63
2023-12-11T17:46:58.004Z,11.98
2023-12-11T17:48:59.584Z,12.38
2023-12-11T17:51:02.729Z,12.00
2023-12-11T17:53:05.577Z,11.45
2023-12-11T17:55:07.273Z,11.60
2023-12-11T17:57:08.773Z,12.13
2023-12-11T17:59:10.385Z,12.52
2023-12-11T18:01:11.990Z,11.90
2023-12-11T18:03:13.600Z,12.75
2023-12-11T18:05:15.205Z,12.80
2023-12-11T18:07:16.747Z,12.25
2023-12-11T18:09:18.498Z,11.43
2023-12-11T18:11:20.011Z,13.68
2023-12-11T18:13:21.674Z,13.38
2023-12-11T18:15:23.119Z,13.13
2023-12-11T18:17:25.050Z,12.98
2023-12-11T18:19:26.878Z,14.07
2023-12-11T18:21:28.380Z,13.98
2023-12-11T18:23:29.934Z,12.60
2023-12-11T18:25:32.046Z,14.35
2023-12-11T18:27:33.870Z,13.60
2023-12-11T18:29:47.026Z,13.20
2023-12-11T18:31:48.715Z,13.37
2023-12-11T18:33:50.412Z,13.05
2023-12-11T18:35:52.105Z,12.75
2023-12-11T18:37:53.626Z,12.70
2023-12-11T18:39:55.138Z,12.82
2023-12-11T18:41:56.800Z,12.55
2023-12-11T18:43:58.520Z,12.65
2023-12-11T18:45:59.992Z,11.70
2023-12-11T18:48:01.687Z,12.48
2023-12-11T18:50:03.498Z,17.17
2023-12-11T18:52:05.445Z,13.80
2023-12-11T18:54:07.703Z,13.15
2023-12-11T18:56:18.033Z,12.23
2023-12-11T18:58:19.497Z,12.52
2023-12-11T19:00:21.416Z,13.32
2023-12-11T19:02:23.103Z,17.17
2023-12-11T19:04:24.827Z,13.55
2023-12-11T19:06:26.496Z,13.57
2023-12-11T19:08:28.097Z,13.88
2023-12-11T19:10:29.554Z,13.88
2023-12-11T19:12:31.222Z,12.98
2023-12-11T19:14:32.946Z,13.13
2023-12-11T19:16:34.391Z,14.13
2023-12-11T19:18:36.784Z,16.67
2023-12-11T19:20:38.407Z,17.17
2023-12-11T19:22:39.843Z,23.80
2023-12-11T19:24:41.271Z,18.17
2023-12-11T19:26:42.795Z,16.40
2023-12-11T19:28:44.285Z,13.13
2023-12-11T19:30:51.781Z,15.57
2023-12-11T19:32:54.154Z,13.80
2023-12-11T19:34:55.888Z,13.95
2023-12-11T19:36:57.421Z,14.18
2023-12-11T19:38:58.966Z,13.68
2023-12-11T19:41:00.397Z,12.18
2023-12-11T19:43:01.989Z,14.55
2023-12-11T19:45:03.806Z,13.23
2023-12-11T19:47:05.249Z,15.20
2023-12-11T19:49:06.763Z,14.60
2023-12-11T19:51:12.784Z,16.73
2023-12-11T19:53:14.259Z,15.35
2023-12-11T19:55:15.966Z,15.18
2023-12-11T19:57:17.571Z,17.83
2023-12-11T19:59:19.007Z,16.08
2023-12-11T20:01:31.447Z,15.93
2023-12-11T20:03:33.083Z,18.20
2023-12-11T20:05:34.597Z,18.35
2023-12-11T20:07:36.520Z,19.45
2023-12-11T20:09:41.750Z,16.50
2023-12-11T20:11:43.211Z,16.05
2023-12-11T20:13:44.792Z,15.95
2023-12-11T20:15:47.445Z,16.17
2023-12-11T20:17:48.980Z,15.68
2023-12-11T20:19:50.488Z,16.45
2023-12-11T20:21:52.239Z,15.43
2023-12-11T20:23:53.686Z,16.38
2023-12-11T20:25:55.590Z,16.13
2023-12-11T20:27:57.150Z,16.67
2023-12-11T20:29:58.620Z,15.55
2023-12-11T20:32:00.068Z,15.55
2023-12-11T20:34:01.861Z,14.93
2023-12-11T20:36:03.600Z,16.60
2023-12-11T20:38:05.027Z,15.50
2023-12-11T20:40:07.211Z,16.58
2023-12-11T20:42:08.664Z,16.85
2023-12-11T20:44:10.114Z,18.42
2023-12-11T20:46:12.110Z,17.55
2023-12-11T20:48:13.629Z,17.90
2023-12-11T20:50:15.249Z,18.67
2023-12-11T20:52:16.775Z,19.23
2023-12-11T20:54:18.230Z,21.30
2023-12-11T20:56:31.782Z,19.38
2023-12-11T20:58:35.266Z,20.00
2023-12-11T21:00:36.716Z,18.80
2023-12-11T21:02:38.233Z,18.80
2023-12-11T21:04:40.062Z,19.35
2023-12-11T21:06:41.516Z,20.05
2023-12-11T21:08:45.117Z,18.42
2023-12-11T21:10:47.351Z,19.27
2023-12-11T21:12:48.813Z,19.38
2023-12-11T21:14:50.341Z,18.90
2023-12-11T21:16:51.881Z,18.88
2023-12-11T21:18:53.521Z,19.00
2023-12-11T21:20:55.704Z,19.25
2023-12-11T21:22:57.213Z,19.23
2023-12-11T21:24:58.727Z,19.70
2023-12-11T21:27:00.603Z,19.65
2023-12-11T21:29:02.249Z,20.88
2023-12-11T21:31:03.812Z,20.20
2023-12-11T21:33:05.417Z,21.25
2023-12-11T21:35:07.451Z,23.67
2023-12-11T21:37:09.255Z,23.08
2023-12-11T21:39:10.820Z,28.00
2023-12-11T21:41:12.504Z,26.85
2023-12-11T21:43:14.012Z,27.92
2023-12-11T21:45:15.734Z,26.65
2023-12-11T21:47:17.301Z,22.85
2023-12-11T21:49:19.144Z,23.08
2023-12-11T21:51:21.271Z,22.77
2023-12-11T21:53:22.922Z,23.23
2023-12-11T21:55:24.468Z,24.02
2023-12-11T21:57:26.036Z,23.58
2023-12-11T21:59:35.600Z,23.38
2023-12-11T22:01:44.005Z,25.38
2023-12-11T22:03:45.831Z,23.20
2023-12-11T22:05:47.485Z,23.67
2023-12-11T22:07:49.037Z,24.02
2023-12-11T22:09:51.013Z,23.90
2023-12-11T22:11:52.609Z,22.77
2023-12-11T22:13:54.093Z,22.08
2023-12-11T22:15:55.685Z,20.92
2023-12-11T22:17:57.330Z,21.42
2023-12-11T22:19:58.882Z,21.58
2023-12-11T22:22:00.509Z,21.08
2023-12-11T22:24:02.075Z,22.77
2023-12-11T22:26:03.579Z,21.00
2023-12-11T22:28:05.421Z,22.02
2023-12-11T22:30:07.469Z,22.83
2023-12-11T22:32:08.969Z,23.40
2023-12-11T22:34:11.015Z,22.77
2023-12-11T22:36:20.881Z,21.95
2023-12-11T22:38:22.346Z,22.88
2023-12-11T22:40:23.930Z,22.95
2023-12-11T22:42:25.481Z,25.65
2023-12-11T22:44:26.926Z,29.40
2023-12-11T22:46:28.964Z,37.83
2023-12-11T22:48:30.676Z,35.78
2023-12-11T22:50:32.266Z,33.17
2023-12-11T22:52:34.109Z,32.72
2023-12-11T22:54:35.787Z,32.75
2023-12-11T22:56:37.453Z,31.95
2023-12-11T22:58:38.990Z,34.72
2023-12-11T23:00:40.652Z,156.68
2023-12-11T23:02:42.161Z,68.43
2023-12-11T23:04:43.940Z,64.13
2023-12-11T23:06:45.938Z,58.63
2023-12-11T23:08:47.405Z,53.03
2023-12-11T23:10:49.248Z,61.92
2023-12-11T23:12:50.803Z,55.00
2023-12-11T23:14:52.260Z,54.40
2023-12-11T23:16:53.942Z,61.10
2023-12-11T23:18:56.431Z,56.38
2023-12-11T23:20:58.094Z,61.85
2023-12-11T23:22:59.796Z,55.70
2023-12-11T23:25:01.332Z,59.38
2023-12-11T23:27:02.915Z,62.65
2023-12-11T23:29:04.455Z,59.30
2023-12-11T23:31:06.155Z,54.45
2023-12-11T23:33:07.913Z,63.05
2023-12-11T23:35:09.567Z,55.83
2023-12-11T23:37:11.226Z,62.10
2023-12-11T23:39:12.682Z,67.03
2023-12-11T23:41:14.316Z,62.90
2023-12-11T23:43:15.956Z,83.78
2023-12-11T23:45:17.643Z,82.78
2023-12-11T23:47:19.933Z,79.28
2023-12-11T23:49:21.698Z,83.82
2023-12-11T23:51:23.204Z,87.95
2023-12-11T23:53:24.834Z,95.50
2023-12-11T23:55:26.671Z,71.72
2023-12-11T23:57:28.329Z,75.70
2023-12-11T23:59:30.143Z,47.03
